createdAt,value
2018-12-01T00:01:42.491Z,8.60
2018-12-01T00:04:10.115Z,8.60
2018-12-01T00:06:37.694Z,8.60
2018-12-01T00:09:05.312Z,8.60
2018-12-01T00:11:32.891Z,8.60
2018-12-01T00:14:00.551Z,8.60
2018-12-01T00:16:28.067Z,8.60
2018-12-01T00:18:55.684Z,8.60
2018-12-01T00:21:23.267Z,8.60
2018-12-01T00:23:50.854Z,8.60
2018-12-01T00:26:18.486Z,8.60
2018-12-01T00:28:46.068Z,8.60
2018-12-01T00:31:13.644Z,8.80
2018-12-01T00:33:41.529Z,8.80
2018-12-01T00:36:09.116Z,8.80
2018-12-01T00:38:36.695Z,8.80
2018-12-01T00:41:04.322Z,8.70
2018-12-01T00:43:31.902Z,8.70
2018-12-01T00:45:59.479Z,8.70
2018-12-01T00:48:27.115Z,8.70
2018-12-01T00:50:55.465Z,8.70
2018-12-01T00:53:23.038Z,8.70
2018-12-01T00:55:50.683Z,8.70
2018-12-01T00:58:18.228Z,8.70
2018-12-01T01:00:45.814Z,8.60
2018-12-01T01:03:13.762Z,8.70
2018-12-01T01:05:41.340Z,8.60
2018-12-01T01:08:08.916Z,8.60
2018-12-01T01:10:36.539Z,8.60
2018-12-01T01:13:04.119Z,8.60
2018-12-01T01:15:32.082Z,8.60
2018-12-01T01:17:59.711Z,8.60
2018-12-01T01:20:27.298Z,8.60
2018-12-01T01:22:54.885Z,8.60
2018-12-01T01:25:22.499Z,8.60
2018-12-01T01:27:50.076Z,8.60
2018-12-01T01:30:17.728Z,8.60
2018-12-01T01:32:45.308Z,8.60
2018-12-01T01:35:12.891Z,8.70
2018-12-01T01:37:40.496Z,8.60
2018-12-01T01:40:08.077Z,8.70
2018-12-01T01:42:35.685Z,8.70
2018-12-01T01:45:03.263Z,8.70
2018-12-01T01:47:30.838Z,8.70
2018-12-01T01:49:59.226Z,8.90
2018-12-01T01:52:27.563Z,8.90
2018-12-01T01:54:55.190Z,8.80
2018-12-01T01:57:22.775Z,8.80
2018-12-01T01:59:50.354Z,8.80
2018-12-01T02:02:17.957Z,8.80
2018-12-01T02:04:45.539Z,8.80
2018-12-01T02:07:13.145Z,8.80
2018-12-01T02:09:40.715Z,8.80
2018-12-01T02:12:09.700Z,8.90
2018-12-01T02:14:37.269Z,8.90
2018-12-01T02:17:05.617Z,9.00
2018-12-01T02:19:33.217Z,9.00
2018-12-01T02:22:00.802Z,9.00
2018-12-01T02:24:28.414Z,9.00
2018-12-01T02:26:56.265Z,9.00
2018-12-01T02:29:23.895Z,8.90
2018-12-01T02:31:51.466Z,8.90
2018-12-01T02:34:19.044Z,8.90
2018-12-01T02:36:46.640Z,8.80
2018-12-01T02:39:14.234Z,8.80
2018-12-01T02:41:41.852Z,8.80
2018-12-01T02:44:20.987Z,8.70
2018-12-01T02:46:57.825Z,8.70
2018-12-01T02:49:25.403Z,8.90
2018-12-01T02:51:52.983Z,8.90
2018-12-01T02:54:20.590Z,8.80
2018-12-01T02:56:48.172Z,8.70
2018-12-01T02:59:15.786Z,8.70
2018-12-01T03:01:43.363Z,8.70
2018-12-01T03:04:10.933Z,8.60
2018-12-01T03:06:38.533Z,8.60
2018-12-01T03:09:06.116Z,8.60
2018-12-01T03:11:33.752Z,8.60
2018-12-01T03:14:01.319Z,8.60
2018-12-01T03:16:28.909Z,8.50
2018-12-01T03:18:56.507Z,8.50
2018-12-01T03:21:24.873Z,8.50
2018-12-01T03:23:53.250Z,8.50
2018-12-01T03:26:20.827Z,8.50
2018-12-01T03:28:49.181Z,8.40
2018-12-01T03:31:16.784Z,8.40
2018-12-01T03:33:44.362Z,8.40
2018-12-01T03:36:11.988Z,8.50
2018-12-01T03:38:40.337Z,8.50
2018-12-01T03:41:08.319Z,8.40
2018-12-01T03:43:35.905Z,8.50
2018-12-01T03:46:04.251Z,8.70
2018-12-01T03:48:31.878Z,8.70
2018-12-01T03:50:59.460Z,8.70
2018-12-01T03:53:27.069Z,8.70
2018-12-01T03:55:55.419Z,8.60
2018-12-01T03:58:23.005Z,8.60
2018-12-01T04:00:51.379Z,8.70
2018-12-01T04:03:19.725Z,8.80
2018-12-01T04:05:47.345Z,8.80
2018-12-01T04:08:14.934Z,8.80
2018-12-01T04:10:42.507Z,8.70
2018-12-01T04:13:10.121Z,8.60
2018-12-01T04:15:38.464Z,8.50
2018-12-01T04:18:06.075Z,8.50
2018-12-01T04:20:33.651Z,8.50
2018-12-01T04:23:01.505Z,8.40
2018-12-01T04:25:29.115Z,8.40
2018-12-01T04:27:56.702Z,8.40
2018-12-01T04:30:25.114Z,8.40
2018-12-01T04:32:52.693Z,8.40
2018-12-01T04:35:20.279Z,8.40
2018-12-01T04:37:47.883Z,8.40
2018-12-01T04:40:16.225Z,8.40
2018-12-01T04:42:43.830Z,8.40
2018-12-01T04:45:11.419Z,8.50
2018-12-01T04:47:39.011Z,8.50
2018-12-01T04:50:06.620Z,8.50
2018-12-01T04:52:34.199Z,8.40
2018-12-01T04:55:01.824Z,8.60
2018-12-01T04:57:30.177Z,8.60
2018-12-01T04:59:57.753Z,8.60
2018-12-01T05:02:26.155Z,8.60
2018-12-01T05:04:53.733Z,8.50
2018-12-01T05:07:21.347Z,8.50
2018-12-01T05:09:48.935Z,8.50
2018-12-01T05:12:17.284Z,8.40
2018-12-01T05:14:44.877Z,8.40
2018-12-01T05:17:13.228Z,8.40
2018-12-01T05:19:41.543Z,8.40
2018-12-01T05:22:09.122Z,8.40
2018-12-01T05:24:36.696Z,8.30
2018-12-01T05:27:04.298Z,8.40
2018-12-01T05:29:31.880Z,8.40
2018-12-01T05:32:00.255Z,8.40
2018-12-01T05:34:28.609Z,8.40
2018-12-01T05:36:56.263Z,8.40
2018-12-01T05:39:23.839Z,8.40
2018-12-01T05:41:51.434Z,8.40
2018-12-01T05:44:19.806Z,8.70
2018-12-01T05:46:48.151Z,8.70
2018-12-01T05:49:15.772Z,8.60
2018-12-01T05:51:43.361Z,8.60
2018-12-01T05:54:10.944Z,8.50
2018-12-01T05:56:38.562Z,8.50
2018-12-01T05:59:06.153Z,8.40
2018-12-01T06:01:33.780Z,8.40
2018-12-01T06:04:01.372Z,8.30
2018-12-01T06:06:28.963Z,8.40
2018-12-01T06:08:56.586Z,8.40
2018-12-01T06:11:24.171Z,8.40
2018-12-01T06:13:51.752Z,8.40
2018-12-01T06:16:19.455Z,8.30
2018-12-01T06:18:47.094Z,8.40
2018-12-01T06:21:15.439Z,8.40
2018-12-01T06:23:43.060Z,8.40
2018-12-01T06:26:10.637Z,8.40
2018-12-01T06:28:38.219Z,8.40
2018-12-01T06:31:05.906Z,8.40
2018-12-01T06:33:33.495Z,8.40
2018-12-01T06:36:01.079Z,8.50
2018-12-01T06:38:28.735Z,8.60
2018-12-01T06:40:56.325Z,8.60
2018-12-01T06:43:23.914Z,8.60
2018-12-01T06:45:51.531Z,8.60
2018-12-01T06:48:19.121Z,8.60
2018-12-01T06:50:46.699Z,8.60
2018-12-01T06:53:14.586Z,8.60
2018-12-01T06:55:42.933Z,8.50
2018-12-01T06:58:10.512Z,8.50
2018-12-01T07:00:38.467Z,8.50
2018-12-01T07:03:06.052Z,8.50
2018-12-01T07:05:34.813Z,8.50
2018-12-01T07:08:02.438Z,8.40
2018-12-01T07:10:30.012Z,8.40
2018-12-01T07:12:57.591Z,8.30
2018-12-01T07:15:25.190Z,8.30
2018-12-01T07:17:52.774Z,8.30
2018-12-01T07:20:20.353Z,8.30
2018-12-01T07:22:48.285Z,8.30
2018-12-01T07:25:16.625Z,8.30
2018-12-01T07:27:44.266Z,8.30
2018-12-01T07:30:11.845Z,8.30
2018-12-01T07:32:39.442Z,8.40
2018-12-01T07:35:07.823Z,8.50
2018-12-01T07:37:36.171Z,8.60
2018-12-01T07:40:03.817Z,8.60
2018-12-01T07:42:31.391Z,8.60
2018-12-01T07:44:58.969Z,8.50
2018-12-01T07:47:26.571Z,8.50
2018-12-01T07:49:54.173Z,8.50
2018-12-01T07:52:21.828Z,8.60
2018-12-01T07:54:49.414Z,8.80
2018-12-01T07:57:17.306Z,8.80
2018-12-01T07:59:45.675Z,8.80
2018-12-01T08:02:13.255Z,8.80
2018-12-01T08:04:42.120Z,8.70
2018-12-01T08:07:09.700Z,8.70
2018-12-01T08:09:38.053Z,8.70
2018-12-01T08:12:05.656Z,8.60
2018-12-01T08:14:34.002Z,8.60
2018-12-01T08:17:01.971Z,8.60
2018-12-01T08:19:29.566Z,8.60
2018-12-01T08:21:57.912Z,8.70
2018-12-01T08:24:25.512Z,8.70
2018-12-01T08:26:54.142Z,8.80
2018-12-01T08:29:21.749Z,8.80
2018-12-01T08:31:50.090Z,8.70
2018-12-01T08:34:19.125Z,8.70
2018-12-01T08:36:47.476Z,8.70
2018-12-01T08:39:15.051Z,8.70
2018-12-01T08:41:42.714Z,8.70
2018-12-01T08:44:10.288Z,8.80
2018-12-01T08:46:37.860Z,8.70
2018-12-01T08:49:06.224Z,8.70
2018-12-01T08:51:33.808Z,8.70
2018-12-01T08:54:01.739Z,8.70
2018-12-01T08:56:29.320Z,8.70
2018-12-01T08:58:56.905Z,8.70
2018-12-01T09:01:24.524Z,8.70
2018-12-01T09:03:52.105Z,8.70
2018-12-01T09:06:21.210Z,8.60
2018-12-01T09:08:49.556Z,8.60
2018-12-01T09:11:17.121Z,8.60
2018-12-01T09:13:44.748Z,8.60
2018-12-01T09:16:12.335Z,8.60
2018-12-01T09:18:39.905Z,8.50
2018-12-01T09:21:07.509Z,8.60
2018-12-01T09:23:35.082Z,8.50
2018-12-01T09:26:02.706Z,8.50
2018-12-01T09:28:31.697Z,8.60
2018-12-01T09:30:59.282Z,8.70
2018-12-01T09:33:27.663Z,8.70
2018-12-01T09:35:55.584Z,8.70
2018-12-01T09:38:24.200Z,8.80
2018-12-01T09:40:51.669Z,8.80
2018-12-01T09:43:20.015Z,8.80
2018-12-01T09:45:47.629Z,8.80
2018-12-01T09:48:15.206Z,8.80
2018-12-01T09:50:42.839Z,8.80
2018-12-01T09:53:11.182Z,9.00
2018-12-01T09:55:38.762Z,9.00
2018-12-01T09:58:06.392Z,9.00
2018-12-01T10:00:33.966Z,9.20
2018-12-01T10:03:01.548Z,9.20
2018-12-01T10:05:29.153Z,9.20
2018-12-01T10:07:56.724Z,9.20
2018-12-01T10:10:24.709Z,9.20
2018-12-01T10:12:52.285Z,9.20
2018-12-01T10:15:19.861Z,9.30
2018-12-01T10:17:47.470Z,9.30
2018-12-01T10:20:15.083Z,9.40
2018-12-01T10:22:42.947Z,9.50
2018-12-01T10:25:10.526Z,9.50
2018-12-01T10:27:38.892Z,9.60
2018-12-01T10:30:06.521Z,9.50
2018-12-01T10:32:35.239Z,9.60
2018-12-01T10:35:02.827Z,9.70
2018-12-01T10:37:31.504Z,9.70
2018-12-01T10:39:59.076Z,9.70
2018-12-01T10:42:27.429Z,9.60
2018-12-01T10:44:55.097Z,9.50
2018-12-01T10:47:22.672Z,9.50
2018-12-01T10:49:51.034Z,9.50
2018-12-01T10:52:18.655Z,9.50
2018-12-01T10:54:46.228Z,9.50
2018-12-01T10:57:13.804Z,9.50
2018-12-01T10:59:41.449Z,9.50
2018-12-01T11:02:09.024Z,9.50
2018-12-01T11:04:36.598Z,9.50
2018-12-01T11:07:04.969Z,9.50
2018-12-01T11:09:32.548Z,9.50
2018-12-01T11:12:00.207Z,9.60
2018-12-01T11:14:27.792Z,9.70
2018-12-01T11:16:56.155Z,10.00
2018-12-01T11:19:25.042Z,10.00
2018-12-01T11:21:52.630Z,10.00
2018-12-01T11:24:20.977Z,9.80
2018-12-01T11:26:48.606Z,9.80
2018-12-01T11:29:18.701Z,9.70
2018-12-01T11:31:46.277Z,9.60
2018-12-01T11:34:13.921Z,9.50
2018-12-01T11:36:42.260Z,9.40
2018-12-01T11:39:09.842Z,9.40
2018-12-01T11:41:38.842Z,9.40
2018-12-01T11:44:07.223Z,9.40
2018-12-01T11:46:34.765Z,9.40
2018-12-01T11:49:02.440Z,9.40
2018-12-01T11:51:30.023Z,9.40
2018-12-01T11:53:58.372Z,9.50
2018-12-01T11:56:27.260Z,9.50
2018-12-01T11:58:54.838Z,9.50
2018-12-01T12:01:22.458Z,9.50
2018-12-01T12:03:50.799Z,9.70
2018-12-01T12:06:19.151Z,9.70
2018-12-01T12:08:46.747Z,9.70
2018-12-01T12:11:14.323Z,9.70
2018-12-01T12:13:42.343Z,9.80
2018-12-01T12:16:09.921Z,9.90
2018-12-01T12:18:37.512Z,9.90
2018-12-01T12:21:05.961Z,9.90
2018-12-01T12:23:33.475Z,9.90
2018-12-01T12:26:01.088Z,9.90
2018-12-01T12:28:28.726Z,9.80
2018-12-01T12:30:56.317Z,9.90
2018-12-01T12:33:23.903Z,9.80
2018-12-01T12:35:51.528Z,9.90
2018-12-01T12:38:19.143Z,9.90
2018-12-01T12:40:46.716Z,9.90
2018-12-01T12:43:15.129Z,10.10
2018-12-01T12:45:42.724Z,10.10
2018-12-01T12:48:11.049Z,10.20
2018-12-01T12:50:38.648Z,10.20
2018-12-01T12:53:06.992Z,10.30
2018-12-01T12:55:35.314Z,10.30
2018-12-01T12:58:06.004Z,10.30
2018-12-01T13:00:33.605Z,10.30
2018-12-01T13:03:01.699Z,10.30
2018-12-01T13:05:29.270Z,10.40
2018-12-01T13:07:56.871Z,10.40
2018-12-01T13:10:24.980Z,10.30
2018-12-01T13:12:53.323Z,10.20
2018-12-01T13:15:20.931Z,10.10
2018-12-01T13:17:49.262Z,10.10
2018-12-01T13:20:16.843Z,10.00
2018-12-01T13:22:44.433Z,10.00
2018-12-01T13:25:12.827Z,10.00
2018-12-01T13:27:40.398Z,10.00
2018-12-01T13:30:07.981Z,10.00
2018-12-01T13:32:36.118Z,10.00
2018-12-01T13:35:03.679Z,10.00
2018-12-01T13:37:31.252Z,10.00
2018-12-01T13:39:58.888Z,10.00
2018-12-01T13:42:27.232Z,10.20
2018-12-01T13:44:54.814Z,10.10
2018-12-01T13:47:23.738Z,10.20
2018-12-01T13:49:51.316Z,10.20
2018-12-01T13:52:19.841Z,10.20
2018-12-01T13:54:47.419Z,10.20
2018-12-01T13:57:15.764Z,10.20
2018-12-01T13:59:43.426Z,10.10
2018-12-01T14:02:11.012Z,10.10
2018-12-01T14:04:38.633Z,10.10
2018-12-01T14:07:06.240Z,10.00
2018-12-01T14:09:33.822Z,10.00
2018-12-01T14:12:02.160Z,9.90
2018-12-01T14:14:30.551Z,9.90
2018-12-01T14:16:58.134Z,9.80
2018-12-01T14:19:26.523Z,9.90
2018-12-01T14:21:54.092Z,9.80
2018-12-01T14:24:21.671Z,9.90
2018-12-01T14:26:49.326Z,9.90
2018-12-01T14:29:17.940Z,9.90
2018-12-01T14:31:45.515Z,9.90
2018-12-01T14:34:13.143Z,9.80
2018-12-01T14:36:40.715Z,9.80
2018-12-01T14:39:08.297Z,9.70
2018-12-01T14:41:35.950Z,9.60
2018-12-01T14:44:03.522Z,9.60
2018-12-01T14:46:31.115Z,9.50
2018-12-01T14:48:58.807Z,9.40
2018-12-01T14:51:27.119Z,9.40
2018-12-01T14:53:54.696Z,9.40
2018-12-01T14:56:22.294Z,9.30
2018-12-01T14:58:50.654Z,9.30
2018-12-01T15:01:18.298Z,9.30
2018-12-01T15:03:45.914Z,9.30
2018-12-01T15:06:13.513Z,9.20
2018-12-01T15:08:41.614Z,9.20
2018-12-01T15:11:09.189Z,9.20
2018-12-01T15:13:36.778Z,9.20
2018-12-01T15:16:04.399Z,9.30
2018-12-01T15:18:31.987Z,9.30
2018-12-01T15:20:59.553Z,9.30
2018-12-01T15:23:27.531Z,9.30
2018-12-01T15:25:55.146Z,9.30
2018-12-01T15:28:23.094Z,9.20
2018-12-01T15:30:50.719Z,9.20
2018-12-01T15:33:18.285Z,9.10
2018-12-01T15:35:45.857Z,9.10
2018-12-01T15:38:14.342Z,9.10
2018-12-01T15:40:41.049Z,9.00
2018-12-01T15:43:09.435Z,9.00
2018-12-01T15:45:37.782Z,8.90
2018-12-01T15:48:05.350Z,8.90
2018-12-01T15:50:32.954Z,9.00
2018-12-01T15:53:00.521Z,9.00
2018-12-01T15:55:28.595Z,9.00
2018-12-01T15:57:56.221Z,9.00
2018-12-01T16:00:23.786Z,9.00
2018-12-01T16:02:52.185Z,8.90
2018-12-01T16:05:19.794Z,8.90
2018-12-01T16:07:47.333Z,8.90
2018-12-01T16:10:15.905Z,8.90
2018-12-01T16:12:43.494Z,8.90
2018-12-01T16:15:11.069Z,8.80
2018-12-01T16:17:38.673Z,8.80
2018-12-01T16:20:06.681Z,8.90
2018-12-01T16:22:34.579Z,8.80
2018-12-01T16:25:02.179Z,8.80
2018-12-01T16:27:29.797Z,8.80
2018-12-01T16:29:57.422Z,9.00
2018-12-01T16:32:24.997Z,9.00
2018-12-01T16:34:52.571Z,9.00
2018-12-01T16:37:20.220Z,9.00
2018-12-01T16:39:48.113Z,9.00
2018-12-01T16:42:15.724Z,8.90
2018-12-01T16:44:43.316Z,8.90
2018-12-01T16:47:11.048Z,8.90
2018-12-01T16:49:38.816Z,8.80
2018-12-01T16:52:06.394Z,8.80
2018-12-01T16:54:34.714Z,8.70
2018-12-01T16:57:02.300Z,8.70
2018-12-01T16:59:31.773Z,8.60
2018-12-01T17:01:58.267Z,8.60
2018-12-01T17:04:25.901Z,8.50
2018-12-01T17:06:53.519Z,8.50
2018-12-01T17:09:21.172Z,8.40
2018-12-01T17:11:48.750Z,8.40
2018-12-01T17:14:16.390Z,8.30
2018-12-01T17:16:43.994Z,8.30
2018-12-01T17:19:11.579Z,8.40
2018-12-01T17:21:39.666Z,8.50
2018-12-01T17:24:07.255Z,8.50
2018-12-01T17:26:34.842Z,8.50
2018-12-01T17:29:02.449Z,8.40
2018-12-01T17:31:30.022Z,8.40
2018-12-01T17:33:58.046Z,8.30
2018-12-01T17:36:25.622Z,8.30
2018-12-01T17:38:53.199Z,8.30
2018-12-01T17:41:21.597Z,8.20
2018-12-01T17:43:49.165Z,8.20
2018-12-01T17:46:16.737Z,8.20
2018-12-01T17:48:44.357Z,8.20
2018-12-01T17:51:11.926Z,8.20
2018-12-01T17:53:39.500Z,8.10
2018-12-01T17:56:07.483Z,8.10
2018-12-01T17:58:35.060Z,8.10
2018-12-01T18:01:02.634Z,8.10
2018-12-01T18:03:30.257Z,8.10
2018-12-01T18:05:57.839Z,8.10
2018-12-01T18:08:25.421Z,8.30
2018-12-01T18:10:53.292Z,8.40
2018-12-01T18:13:20.874Z,8.40
2018-12-01T18:15:50.134Z,8.40
2018-12-01T18:18:16.176Z,8.40
2018-12-01T18:20:43.753Z,8.30
2018-12-01T18:23:11.720Z,8.30
2018-12-01T18:25:39.299Z,8.40
2018-12-01T18:28:06.877Z,8.40
2018-12-01T18:30:34.859Z,8.30
2018-12-01T18:33:02.446Z,8.30
2018-12-01T18:35:30.017Z,8.30
2018-12-01T18:37:57.883Z,8.30
2018-12-01T18:40:25.465Z,8.30
2018-12-01T18:42:53.080Z,8.30
2018-12-01T18:45:20.657Z,8.20
2018-12-01T18:47:48.316Z,8.20
2018-12-01T18:50:15.996Z,8.10
2018-12-01T18:52:43.538Z,8.20
2018-12-01T18:55:11.163Z,8.20
2018-12-01T18:57:39.510Z,8.20
2018-12-01T19:00:07.087Z,8.20
2018-12-01T19:02:34.804Z,8.20
2018-12-01T19:05:03.114Z,8.20
2018-12-01T19:07:30.694Z,8.20
2018-12-01T19:09:58.325Z,8.20
2018-12-01T19:12:25.942Z,8.20
2018-12-01T19:14:53.485Z,8.30
2018-12-01T19:17:22.068Z,8.30
2018-12-01T19:19:49.644Z,8.30
2018-12-01T19:22:17.427Z,8.20
2018-12-01T19:24:45.788Z,8.20
2018-12-01T19:27:14.131Z,8.20
2018-12-01T19:29:41.703Z,8.20
2018-12-01T19:32:09.331Z,8.20
2018-12-01T19:34:36.908Z,8.20
2018-12-01T19:37:04.488Z,8.10
2018-12-01T19:39:32.159Z,8.20
2018-12-01T19:41:59.706Z,8.20
2018-12-01T19:44:27.317Z,8.10
2018-12-01T19:46:54.928Z,8.10
2018-12-01T19:49:22.526Z,8.10
2018-12-01T19:51:50.872Z,8.20
2018-12-01T19:54:18.504Z,8.10
2018-12-01T19:56:46.092Z,8.20
2018-12-01T19:59:13.676Z,8.30
2018-12-01T20:01:41.330Z,8.40
2018-12-01T20:04:08.874Z,8.50
2018-12-01T20:06:36.447Z,8.40
2018-12-01T20:09:04.938Z,8.40
2018-12-01T20:11:32.526Z,8.40
2018-12-01T20:14:00.112Z,8.40
2018-12-01T20:16:27.781Z,8.50
2018-12-01T20:18:55.362Z,8.40
2018-12-01T20:21:22.948Z,8.40
2018-12-01T20:23:50.567Z,8.40
2018-12-01T20:26:18.147Z,8.40
2018-12-01T20:28:45.740Z,8.40
2018-12-01T20:31:13.371Z,8.50
2018-12-01T20:33:40.949Z,8.40
2018-12-01T20:36:08.687Z,8.40
2018-12-01T20:38:36.161Z,8.40
2018-12-01T20:41:03.736Z,8.40
2018-12-01T20:43:31.325Z,8.40
2018-12-01T20:45:59.724Z,8.30
2018-12-01T20:48:27.327Z,8.30
2018-12-01T20:50:54.907Z,8.30
2018-12-01T20:53:23.498Z,8.30
2018-12-01T20:55:51.087Z,8.30
2018-12-01T20:58:19.821Z,8.30
2018-12-01T21:00:47.502Z,8.30
2018-12-01T21:03:15.073Z,8.30
2018-12-01T21:05:42.649Z,8.30
2018-12-01T21:08:10.757Z,8.30
2018-12-01T21:10:38.342Z,8.30
2018-12-01T21:13:05.925Z,8.20
2018-12-01T21:15:33.554Z,8.20
2018-12-01T21:18:01.146Z,8.20
2018-12-01T21:20:28.714Z,8.30
2018-12-01T21:22:56.802Z,8.30
2018-12-01T21:25:24.383Z,8.30
2018-12-01T21:27:51.965Z,8.40
2018-12-01T21:30:19.578Z,8.40
2018-12-01T21:32:47.235Z,8.40
2018-12-01T21:35:15.331Z,8.50
2018-12-01T21:37:42.888Z,8.40
2018-12-01T21:40:10.518Z,8.40
2018-12-01T21:42:38.099Z,8.40
2018-12-01T21:45:05.676Z,8.40
2018-12-01T21:47:34.063Z,8.40
2018-12-01T21:50:01.643Z,8.40
2018-12-01T21:52:29.219Z,8.40
2018-12-01T21:54:56.830Z,8.50
2018-12-01T21:57:24.412Z,8.60
2018-12-01T21:59:52.819Z,8.60
2018-12-01T22:02:20.396Z,8.60
2018-12-01T22:04:47.970Z,8.60
2018-12-01T22:07:15.591Z,8.60
2018-12-01T22:09:43.162Z,8.60
2018-12-01T22:12:10.757Z,8.60
2018-12-01T22:14:38.407Z,8.50
2018-12-01T22:17:05.973Z,8.70
2018-12-01T22:19:36.950Z,8.70
2018-12-01T22:22:05.291Z,8.70
2018-12-01T22:24:33.055Z,8.70
2018-12-01T22:27:00.689Z,8.70
2018-12-01T22:29:28.263Z,8.70
2018-12-01T22:31:58.722Z,8.80
2018-12-01T22:34:26.658Z,8.80
2018-12-01T22:36:54.163Z,8.80
2018-12-01T22:39:21.760Z,8.70
2018-12-01T22:41:49.379Z,8.70
2018-12-01T22:44:16.949Z,8.70
2018-12-01T22:46:44.518Z,8.80
2018-12-01T22:49:12.132Z,8.80
2018-12-01T22:51:39.712Z,8.80
2018-12-01T22:54:07.349Z,8.80
2018-12-01T22:56:34.923Z,8.80
2018-12-01T22:59:02.490Z,8.80
2018-12-01T23:01:30.115Z,8.90
2018-12-01T23:03:58.453Z,8.90
2018-12-01T23:06:26.031Z,8.90
2018-12-01T23:08:53.636Z,8.90
2018-12-01T23:11:21.208Z,8.90
2018-12-01T23:13:48.852Z,8.90
2018-12-01T23:16:16.426Z,8.90
2018-12-01T23:18:44.004Z,9.00
2018-12-01T23:21:11.598Z,9.20
2018-12-01T23:23:39.188Z,9.20
2018-12-01T23:26:06.813Z,9.10
2018-12-01T23:28:34.388Z,9.10
2018-12-01T23:31:02.974Z,9.10
2018-12-01T23:33:32.777Z,9.20
2018-12-01T23:36:00.355Z,9.20
2018-12-01T23:38:29.836Z,9.20
2018-12-01T23:40:57.420Z,9.20
2018-12-01T23:43:25.776Z,9.20
2018-12-01T23:45:53.374Z,9.20
2018-12-01T23:48:21.716Z,9.10
2018-12-01T23:50:50.754Z,9.10
2018-12-01T23:53:19.092Z,9.20
2018-12-01T23:55:46.665Z,9.20
2018-12-01T23:58:14.711Z,9.20
